createdAt,value
2017-10-09T00:00:18.105Z,7.6
2017-10-09T00:01:16.935Z,7.6
2017-10-09T00:03:15.031Z,7.6
2017-10-09T00:05:13.632Z,7.6
2017-10-09T00:07:11.722Z,7.6
2017-10-09T00:08:10.696Z,7.6
2017-10-09T00:11:07.793Z,7.5
2017-10-09T00:13:06.017Z,7.6
2017-10-09T00:14:05.598Z,7.6
2017-10-09T00:16:03.695Z,7.6
2017-10-09T00:18:01.791Z,7.6
2017-10-09T00:19:01.135Z,7.6
2017-10-09T00:20:58.976Z,7.6
2017-10-09T00:21:58.064Z,7.5
2017-10-09T00:22:57.398Z,7.6
2017-10-09T00:23:56.348Z,7.6
2017-10-09T00:24:55.566Z,7.6
2017-10-09T00:25:54.146Z,7.6
2017-10-09T00:26:53.613Z,7.6
2017-10-09T00:28:51.827Z,7.6
2017-10-09T00:30:49.925Z,7.6
2017-10-09T00:31:49.011Z,7.5
2017-10-09T00:32:48.226Z,7.5
2017-10-09T00:33:18.504Z,7.5
2017-10-09T00:34:46.150Z,7.5
2017-10-09T00:35:45.363Z,7.5
2017-10-09T00:36:44.585Z,7.5
2017-10-09T00:38:42.933Z,7.5
2017-10-09T00:39:41.766Z,7.5
2017-10-09T00:41:40.241Z,7.5
2017-10-09T00:42:39.080Z,7.5
2017-10-09T00:43:38.158Z,7.5
2017-10-09T00:45:36.503Z,7.5
2017-10-09T00:46:35.216Z,7.5
2017-10-09T00:47:34.423Z,7.5
2017-10-09T00:48:33.884Z,7.5
2017-10-09T00:50:31.982Z,7.4
2017-10-09T00:51:30.810Z,7.5
2017-10-09T00:52:29.897Z,7.5
2017-10-09T00:53:29.231Z,7.5
2017-10-09T00:54:27.942Z,7.4
2017-10-09T00:55:27.402Z,7.5
2017-10-09T00:56:26.627Z,7.4
2017-10-09T00:57:25.343Z,7.5
2017-10-09T00:58:24.809Z,7.5
2017-10-09T00:59:23.644Z,7.5
2017-10-09T01:00:22.855Z,7.5
2017-10-09T01:02:20.694Z,7.5
2017-10-09T01:03:20.027Z,7.4
2017-10-09T01:06:17.128Z,7.4
2017-10-09T01:07:16.344Z,7.4
2017-10-09T01:08:15.676Z,7.4
2017-10-09T01:09:14.380Z,7.4
2017-10-09T01:10:13.722Z,7.4
2017-10-09T01:11:13.058Z,7.4
2017-10-09T01:12:11.897Z,7.4
2017-10-09T01:13:10.856Z,7.4
2017-10-09T01:13:41.001Z,7.4
2017-10-09T01:14:11.531Z,7.4
2017-10-09T01:15:09.225Z,7.4
2017-10-09T01:16:08.577Z,7.4
2017-10-09T01:17:07.409Z,7.3
2017-10-09T01:18:06.750Z,7.3
2017-10-09T01:19:05.337Z,7.3
2017-10-09T01:20:04.679Z,7.3
2017-10-09T01:21:03.890Z,7.3
2017-10-09T01:22:03.103Z,7.3
2017-10-09T01:23:01.692Z,7.3
2017-10-09T01:24:00.776Z,7.3
2017-10-09T01:25:59.253Z,7.3
2017-10-09T01:27:57.479Z,7.3
2017-10-09T01:29:55.574Z,7.3
2017-10-09T01:30:54.783Z,7.3
2017-10-09T01:31:53.493Z,7.3
2017-10-09T01:35:49.988Z,7.3
2017-10-09T01:37:48.207Z,7.3
2017-10-09T01:39:46.431Z,7.3
2017-10-09T01:40:45.517Z,7.3
2017-10-09T01:41:44.486Z,7.3
2017-10-09T01:43:42.954Z,7.3
2017-10-09T01:44:42.167Z,7.3
2017-10-09T01:45:41.502Z,7.3
2017-10-09T01:49:37.612Z,7.3
2017-10-09T01:50:36.698Z,7.3
2017-10-09T01:51:35.533Z,7.3
2017-10-09T01:52:34.619Z,7.4
2017-10-09T01:53:34.081Z,7.4
2017-10-09T01:54:33.036Z,7.4
2017-10-09T01:55:31.998Z,7.3
2017-10-09T01:56:30.965Z,7.4
2017-10-09T01:57:30.298Z,7.4
2017-10-09T01:58:29.565Z,7.4
2017-10-09T01:59:28.650Z,7.4
2017-10-09T02:00:27.616Z,7.4
2017-10-09T02:02:25.718Z,7.4
2017-10-09T02:04:23.822Z,7.4
2017-10-09T02:05:22.775Z,7.4
2017-10-09T02:06:22.119Z,7.4
2017-10-09T02:08:23.887Z,7.4
2017-10-09T02:09:19.179Z,7.4
2017-10-09T02:10:18.490Z,7.4
2017-10-09T02:12:16.564Z,7.4
2017-10-09T02:13:15.639Z,7.4
2017-10-09T02:16:13.224Z,7.4
2017-10-09T02:18:11.049Z,7.4
2017-10-09T02:20:09.639Z,7.3
2017-10-09T02:21:08.329Z,7.3
2017-10-09T02:22:07.517Z,7.3
2017-10-09T02:23:06.837Z,7.3
2017-10-09T02:24:05.397Z,7.3
2017-10-09T02:25:05.098Z,7.3
2017-10-09T02:26:03.663Z,7.3
2017-10-09T02:28:02.242Z,7.3
2017-10-09T02:30:00.192Z,7.2
2017-10-09T02:30:59.133Z,7.2
2017-10-09T02:31:58.338Z,7.2
2017-10-09T02:32:57.537Z,7.2
2017-10-09T02:33:56.734Z,7.2
2017-10-09T02:34:55.672Z,7.2
2017-10-09T02:35:55.117Z,7.2
2017-10-09T02:37:52.820Z,7.2
2017-10-09T02:38:52.263Z,7.1
2017-10-09T02:41:49.605Z,7.2
2017-10-09T02:42:48.423Z,7.2
2017-10-09T02:43:47.621Z,7.2
2017-10-09T02:44:46.815Z,7.2
2017-10-09T02:45:45.643Z,7.2
2017-10-09T02:46:45.084Z,7.2
2017-10-09T02:47:43.902Z,7.2
2017-10-09T02:48:43.219Z,7.2
2017-10-09T02:51:40.302Z,7.1
2017-10-09T02:52:39.127Z,7.1
2017-10-09T02:53:38.574Z,7.1
2017-10-09T02:54:37.767Z,7.1
2017-10-09T02:55:36.459Z,7.1
2017-10-09T02:56:35.777Z,7.1
2017-10-09T02:57:35.097Z,7.1
2017-10-09T02:58:33.785Z,7.1
2017-10-09T02:59:33.239Z,7.1
2017-10-09T03:00:32.056Z,7.1
2017-10-09T03:01:31.007Z,7.1
2017-10-09T03:02:30.454Z,7.1
2017-10-09T03:03:29.145Z,7
2017-10-09T03:04:28.472Z,7
2017-10-09T03:05:27.917Z,7
2017-10-09T03:06:26.606Z,7
2017-10-09T03:08:24.939Z,7
2017-10-09T03:09:24.005Z,7
2017-10-09T03:10:22.691Z,6.9
2017-10-09T03:11:22.261Z,6.9
2017-10-09T03:12:20.950Z,6.9
2017-10-09T03:13:20.135Z,6.8
2017-10-09T03:14:19.207Z,6.8
2017-10-09T03:15:18.405Z,6.8
2017-10-09T03:17:16.480Z,6.7
2017-10-09T03:18:15.926Z,6.7
2017-10-09T03:20:14.135Z,6.7
2017-10-09T03:21:13.074Z,6.7
2017-10-09T03:22:12.013Z,6.6
2017-10-09T03:23:11.208Z,6.6
2017-10-09T03:25:09.285Z,6.6
2017-10-09T03:26:08.228Z,6.5
2017-10-09T03:27:07.293Z,6.5
2017-10-09T03:28:06.618Z,6.5
2017-10-09T03:29:05.440Z,6.4
2017-10-09T03:30:04.636Z,6.4
2017-10-09T03:31:03.582Z,6.4
2017-10-09T03:32:03.036Z,6.4
2017-10-09T03:33:01.726Z,6.4
2017-10-09T03:34:00.917Z,6.4
2017-10-09T03:35:00.243Z,6.4
2017-10-09T03:35:59.433Z,6.4
2017-10-09T03:36:58.513Z,6.4
2017-10-09T03:37:57.588Z,6.4
2017-10-09T03:38:56.156Z,6.4
2017-10-09T03:39:55.464Z,6.4
2017-10-09T03:40:54.526Z,6.4
2017-10-09T03:41:53.721Z,6.4
2017-10-09T03:42:52.665Z,6.3
2017-10-09T03:43:51.981Z,6.3
2017-10-09T03:44:51.292Z,6.3
2017-10-09T03:45:50.108Z,6.3
2017-10-09T03:46:20.620Z,6.3
2017-10-09T03:46:50.873Z,6.3
2017-10-09T03:47:21.378Z,6.3
2017-10-09T03:48:47.363Z,6.3
2017-10-09T03:49:46.189Z,6.2
2017-10-09T03:51:44.380Z,6.2
2017-10-09T03:53:42.453Z,6.2
2017-10-09T03:54:41.900Z,6.2
2017-10-09T03:55:40.717Z,6.2
2017-10-09T03:56:39.909Z,6.2
2017-10-09T03:57:38.843Z,6.2
2017-10-09T03:58:38.030Z,6.2
2017-10-09T03:59:37.343Z,6.1
2017-10-09T04:00:36.279Z,6.1
2017-10-09T04:02:34.229Z,6.1
2017-10-09T04:03:33.548Z,6.1
2017-10-09T04:04:32.496Z,6.1
2017-10-09T04:06:30.575Z,6.1
2017-10-09T04:07:30.017Z,6.1
2017-10-09T04:08:28.700Z,6.1
2017-10-09T04:09:28.140Z,6.1
2017-10-09T04:10:27.082Z,6.1
2017-10-09T04:11:26.020Z,6.1
2017-10-09T04:12:25.215Z,6.1
2017-10-09T04:13:24.023Z,6.1
2017-10-09T04:14:23.211Z,6.1
2017-10-09T04:16:21.536Z,6
2017-10-09T04:17:20.731Z,6
2017-10-09T04:18:19.298Z,6
2017-10-09T04:19:18.864Z,6
2017-10-09T04:20:17.552Z,6
2017-10-09T04:21:16.738Z,6
2017-10-09T04:22:15.804Z,6
2017-10-09T04:23:15.118Z,6
2017-10-09T04:24:13.930Z,6
2017-10-09T04:25:13.123Z,6
2017-10-09T04:26:12.571Z,6
2017-10-09T04:27:11.134Z,6
2017-10-09T04:27:41.779Z,6
2017-10-09T04:28:12.154Z,6
2017-10-09T04:28:42.535Z,6
2017-10-09T04:29:12.915Z,6
2017-10-09T04:29:43.546Z,6
2017-10-09T04:31:07.272Z,6
2017-10-09T04:32:06.586Z,6
2017-10-09T04:33:05.780Z,6
2017-10-09T04:36:03.128Z,5.9
2017-10-09T04:37:02.067Z,6
2017-10-09T04:38:01.137Z,6
2017-10-09T04:39:00.221Z,5.9
2017-10-09T04:39:59.411Z,5.9
2017-10-09T04:40:58.098Z,5.9
2017-10-09T04:43:55.313Z,5.9
2017-10-09T04:45:53.644Z,5.9
2017-10-09T04:46:52.833Z,5.9
2017-10-09T04:47:52.022Z,5.9
2017-10-09T04:48:50.838Z,5.9
2017-10-09T04:49:50.027Z,5.9
2017-10-09T04:50:48.970Z,5.9
2017-10-09T04:51:47.912Z,5.9
2017-10-09T04:57:42.400Z,6
2017-10-09T04:58:41.717Z,6
2017-10-09T04:59:40.530Z,6
2017-10-09T05:02:37.873Z,6
2017-10-09T05:03:36.821Z,6
2017-10-09T05:04:36.019Z,6
2017-10-09T05:05:34.837Z,6
2017-10-09T05:06:34.165Z,6
2017-10-09T05:07:33.111Z,6
2017-10-09T05:08:32.424Z,6
2017-10-09T05:11:29.503Z,6
2017-10-09T05:13:27.835Z,6
2017-10-09T05:15:25.667Z,6
2017-10-09T05:16:24.734Z,6
2017-10-09T05:17:24.048Z,6
2017-10-09T05:19:22.256Z,6
2017-10-09T05:20:21.071Z,6
2017-10-09T05:21:20.266Z,6
2017-10-09T05:23:18.472Z,6
2017-10-09T05:24:17.536Z,6
2017-10-09T05:25:16.357Z,6
2017-10-09T05:26:15.552Z,6
2017-10-09T05:27:14.494Z,6
2017-10-09T05:28:13.553Z,6
2017-10-09T05:29:12.755Z,6
2017-10-09T05:30:11.829Z,6
2017-10-09T05:31:10.777Z,6
2017-10-09T05:32:09.966Z,6
2017-10-09T05:33:08.779Z,6
2017-10-09T05:34:08.098Z,6
2017-10-09T05:35:07.051Z,6
2017-10-09T05:36:06.406Z,6.1
2017-10-09T05:37:04.973Z,6.1
2017-10-09T05:38:04.166Z,6.1
2017-10-09T05:39:03.361Z,6.1
2017-10-09T05:40:02.438Z,6.1
2017-10-09T05:41:01.629Z,6.1
2017-10-09T05:42:00.693Z,6.1
2017-10-09T05:42:59.507Z,6.1
2017-10-09T05:43:58.577Z,6.1
2017-10-09T05:44:29.331Z,6.1
2017-10-09T05:45:57.077Z,6.1
2017-10-09T05:47:55.269Z,6.1
2017-10-09T05:48:54.214Z,6.1
2017-10-09T05:49:52.905Z,6.1
2017-10-09T05:50:52.103Z,6.1
2017-10-09T05:51:51.295Z,6.1
2017-10-09T05:53:49.495Z,6.2
2017-10-09T05:54:48.564Z,6.2
2017-10-09T05:55:19.073Z,6.2
2017-10-09T05:55:49.835Z,6.2
2017-10-09T05:56:46.652Z,6.2
2017-10-09T05:57:45.709Z,6.2
2017-10-09T05:58:44.783Z,6.2
2017-10-09T05:59:43.975Z,6.2
2017-10-09T06:00:43.167Z,6.2
2017-10-09T06:01:41.981Z,6.3
2017-10-09T06:02:40.931Z,6.3
2017-10-09T06:03:40.124Z,6.3
2017-10-09T06:04:39.062Z,6.3
2017-10-09T06:06:37.518Z,6.3
2017-10-09T06:08:35.599Z,6.3
2017-10-09T06:09:34.790Z,6.4
2017-10-09T06:11:33.112Z,6.4
2017-10-09T06:12:31.925Z,6.4
2017-10-09T06:13:30.855Z,6.4
2017-10-09T06:14:30.176Z,6.4
2017-10-09T06:15:28.869Z,6.4
2017-10-09T06:16:28.058Z,6.4
2017-10-09T06:17:27.373Z,6.4
2017-10-09T06:18:26.318Z,6.5
2017-10-09T06:19:25.002Z,6.5
2017-10-09T06:20:24.194Z,6.5
2017-10-09T06:21:23.516Z,6.5
2017-10-09T06:22:22.329Z,6.5
2017-10-09T06:23:21.522Z,6.5
2017-10-09T06:24:20.584Z,6.5
2017-10-09T06:25:19.775Z,6.6
2017-10-09T06:25:50.281Z,6.6
2017-10-09T06:26:20.534Z,6.6
2017-10-09T06:27:17.963Z,6.6
2017-10-09T06:28:17.041Z,6.6
2017-10-09T06:29:15.733Z,6.7
2017-10-09T06:30:15.303Z,6.7
2017-10-09T06:31:13.860Z,6.7
2017-10-09T06:32:13.176Z,6.7
2017-10-09T06:33:12.260Z,6.7
2017-10-09T06:34:11.450Z,6.7
2017-10-09T06:34:42.208Z,6.7
2017-10-09T06:35:12.582Z,6.7
2017-10-09T06:35:43.215Z,6.7
2017-10-09T06:36:13.347Z,6.7
2017-10-09T06:36:43.971Z,6.7
2017-10-09T06:38:07.817Z,6.8
2017-10-09T06:39:06.761Z,6.8
2017-10-09T06:40:05.699Z,6.9
2017-10-09T06:42:04.030Z,6.9
2017-10-09T06:43:03.476Z,6.9
2017-10-09T06:44:02.428Z,6.9
2017-10-09T06:46:00.364Z,6.9
2017-10-09T06:47:58.560Z,7
2017-10-09T06:48:57.873Z,7
2017-10-09T06:49:56.813Z,7
2017-10-09T06:50:55.757Z,7
2017-10-09T06:51:54.822Z,7.1
2017-10-09T06:52:53.629Z,7.1
2017-10-09T06:53:52.950Z,7.1
2017-10-09T06:54:52.140Z,7.2
2017-10-09T06:55:51.329Z,7.2
2017-10-09T06:56:50.387Z,7.2
2017-10-09T06:57:49.339Z,7.2
2017-10-09T06:59:47.415Z,7.2
2017-10-09T07:00:46.608Z,7.2
2017-10-09T07:01:45.551Z,7.2
2017-10-09T07:02:45.002Z,7.3
2017-10-09T07:03:43.573Z,7.3
2017-10-09T07:04:42.515Z,7.3
2017-10-09T07:05:41.579Z,7.3
2017-10-09T07:06:40.897Z,7.3
2017-10-09T07:08:38.978Z,7.4
2017-10-09T07:10:37.180Z,7.4
2017-10-09T07:11:36.245Z,7.4
2017-10-09T07:12:35.687Z,7.4
2017-10-09T07:13:34.376Z,7.5
2017-10-09T07:14:33.689Z,7.5
2017-10-09T07:15:03.952Z,7.5
2017-10-09T07:15:34.580Z,7.5
2017-10-09T07:16:04.835Z,7.5
2017-10-09T07:16:35.346Z,7.5
2017-10-09T07:17:05.856Z,7.5
2017-10-09T07:18:30.342Z,7.6
2017-10-09T07:19:29.161Z,7.6
2017-10-09T07:20:27.979Z,7.6
2017-10-09T07:21:27.186Z,7.6
2017-10-09T07:22:26.633Z,7.6
2017-10-09T07:23:25.191Z,7.7
2017-10-09T07:24:24.503Z,7.7
2017-10-09T07:25:23.689Z,7.7
2017-10-09T07:26:22.761Z,7.8
2017-10-09T07:27:22.198Z,7.8
2017-10-09T07:28:20.880Z,7.8
2017-10-09T07:29:20.201Z,7.8
2017-10-09T07:31:18.344Z,7.9
2017-10-09T07:32:17.041Z,7.9
2017-10-09T07:34:15.626Z,8
2017-10-09T07:35:14.321Z,8
2017-10-09T07:36:13.760Z,8
2017-10-09T07:37:12.576Z,8
2017-10-09T07:38:11.894Z,8.1
2017-10-09T07:39:10.835Z,8.1
2017-10-09T07:40:10.164Z,8.1
2017-10-09T07:41:09.236Z,8.1
2017-10-09T07:42:07.920Z,8.2
2017-10-09T07:43:07.613Z,8.2
2017-10-09T07:44:06.304Z,8.2
2017-10-09T07:45:05.494Z,8.1
2017-10-09T07:46:04.815Z,8.2
2017-10-09T07:47:03.378Z,8.2
2017-10-09T07:48:02.690Z,8.2
2017-10-09T07:49:02.010Z,8.2
2017-10-09T07:50:59.832Z,8.2
2017-10-09T07:51:59.029Z,8.2
2017-10-09T07:52:58.483Z,8.3
2017-10-09T07:53:57.175Z,8.3
2017-10-09T07:54:56.237Z,8.4
2017-10-09T07:55:55.558Z,8.4
2017-10-09T07:56:54.371Z,8.4
2017-10-09T07:57:53.684Z,8.5
2017-10-09T07:58:52.495Z,8.5
2017-10-09T07:59:52.061Z,8.6
2017-10-09T08:00:51.246Z,8.7
2017-10-09T08:02:49.198Z,8.8
2017-10-09T08:03:48.517Z,8.9
2017-10-09T08:04:47.464Z,9
2017-10-09T08:05:46.403Z,9
2017-10-09T08:06:45.721Z,9.1
2017-10-09T08:07:44.663Z,9.1
2017-10-09T08:09:42.861Z,9.1
2017-10-09T08:10:42.054Z,9.2
2017-10-09T08:11:41.121Z,9.2
2017-10-09T08:12:40.315Z,9.2
2017-10-09T08:13:39.506Z,9.2
2017-10-09T08:14:38.193Z,9.3
2017-10-09T08:16:36.766Z,9.3
2017-10-09T08:18:34.731Z,9.4
2017-10-09T08:19:33.722Z,9.4
2017-10-09T08:20:33.160Z,9.4
2017-10-09T08:21:32.103Z,9.5
2017-10-09T08:22:31.418Z,9.5
2017-10-09T08:23:30.349Z,9.5
2017-10-09T08:24:29.668Z,9.6
2017-10-09T08:25:28.862Z,9.6
2017-10-09T08:26:27.548Z,9.6
2017-10-09T08:27:26.859Z,9.6
2017-10-09T08:28:26.048Z,9.6
2017-10-09T08:29:25.099Z,9.6
2017-10-09T08:30:24.419Z,9.7
2017-10-09T08:31:23.239Z,9.7
2017-10-09T08:32:22.685Z,9.8
2017-10-09T08:33:21.500Z,9.8
2017-10-09T08:35:20.091Z,9.8
2017-10-09T08:36:18.910Z,9.8
2017-10-09T08:37:18.235Z,9.8
2017-10-09T08:38:16.921Z,9.8
2017-10-09T08:39:16.491Z,9.9
2017-10-09T08:40:15.810Z,9.9
2017-10-09T08:41:14.871Z,9.9
2017-10-09T08:41:45.372Z,9.9
2017-10-09T08:42:15.506Z,9.9
2017-10-09T08:43:12.690Z,10
2017-10-09T08:44:12.131Z,10
2017-10-09T08:45:11.323Z,10
2017-10-09T08:46:10.006Z,10.1
2017-10-09T08:47:09.467Z,10.1
2017-10-09T08:48:08.158Z,10.1
2017-10-09T08:49:07.854Z,10.1
2017-10-09T08:50:06.915Z,10.1
2017-10-09T08:51:05.728Z,10.1
2017-10-09T08:51:36.235Z,10.1
2017-10-09T08:52:06.993Z,10
2017-10-09T08:52:37.494Z,10
2017-10-09T08:53:07.868Z,10
2017-10-09T08:53:38.618Z,10
2017-10-09T08:54:08.874Z,10
2017-10-09T08:55:02.531Z,10
2017-10-09T08:56:01.355Z,10
2017-10-09T08:57:00.678Z,10.1
2017-10-09T08:57:59.991Z,10.1
2017-10-09T08:58:59.177Z,10.1
2017-10-09T08:59:57.993Z,10.2
2017-10-09T09:00:57.189Z,10.2
2017-10-09T09:01:56.268Z,10.2
2017-10-09T09:02:55.718Z,10.3
2017-10-09T09:03:25.851Z,10.3
2017-10-09T09:04:54.112Z,10.3
2017-10-09T09:05:52.540Z,10.4
2017-10-09T09:06:52.115Z,10.4
2017-10-09T09:07:51.309Z,10.5
2017-10-09T09:08:50.130Z,10.5
2017-10-09T09:09:49.582Z,10.6
2017-10-09T09:10:48.391Z,10.5
2017-10-09T09:11:47.579Z,10.5
2017-10-09T09:12:46.644Z,10.5
2017-10-09T09:13:45.714Z,10.5
2017-10-09T09:14:45.037Z,10.5
2017-10-09T09:15:44.357Z,10.5
2017-10-09T09:17:42.430Z,10.6
2017-10-09T09:18:41.624Z,10.6
2017-10-09T09:19:40.820Z,10.5
2017-10-09T09:20:40.008Z,10.5
2017-10-09T09:21:39.208Z,10.5
2017-10-09T09:22:38.057Z,10.6
2017-10-09T09:23:37.128Z,10.5
2017-10-09T09:24:36.319Z,10.5
2017-10-09T09:25:35.390Z,10.5
2017-10-09T09:26:34.579Z,10.5
2017-10-09T09:27:33.521Z,10.5
2017-10-09T09:28:32.844Z,10.5
2017-10-09T09:29:32.157Z,10.5
2017-10-09T09:30:31.227Z,10.5
2017-10-09T09:31:30.554Z,10.5
2017-10-09T09:32:29.615Z,10.6
2017-10-09T09:33:28.811Z,10.6
2017-10-09T09:33:59.574Z,10.6
2017-10-09T09:35:27.197Z,10.7
2017-10-09T09:36:26.010Z,10.7
2017-10-09T09:37:25.075Z,10.8
2017-10-09T09:38:24.271Z,10.8
2017-10-09T09:39:23.585Z,10.8
2017-10-09T09:40:22.901Z,10.9
2017-10-09T09:41:21.842Z,10.9
2017-10-09T09:42:21.037Z,11
2017-10-09T09:43:19.980Z,11
2017-10-09T09:44:19.299Z,10.9
2017-10-09T09:44:49.927Z,10.9
2017-10-09T09:46:17.545Z,11
2017-10-09T09:47:16.749Z,11
2017-10-09T09:48:15.565Z,11
2017-10-09T09:49:15.129Z,11
2017-10-09T09:50:14.579Z,10.9
2017-10-09T09:53:11.790Z,11
2017-10-09T09:54:10.597Z,11.1
2017-10-09T09:55:09.913Z,11.1
2017-10-09T09:56:09.352Z,11.2
2017-10-09T09:57:07.915Z,11.2
2017-10-09T09:58:07.481Z,11.2
2017-10-09T09:59:06.809Z,11.2
2017-10-09T10:00:05.628Z,11.3
2017-10-09T10:01:05.196Z,11.2
2017-10-09T10:02:04.015Z,11.2
2017-10-09T10:03:03.331Z,11.2
2017-10-09T10:04:02.273Z,11.3
2017-10-09T10:06:00.763Z,11.3
2017-10-09T10:06:59.834Z,11.3
2017-10-09T10:07:59.022Z,11.3
2017-10-09T10:08:58.216Z,11.3
2017-10-09T10:09:57.310Z,11.4
2017-10-09T10:10:56.502Z,11.4
2017-10-09T10:11:55.692Z,11.4
2017-10-09T10:12:54.883Z,11.4
2017-10-09T10:13:54.073Z,11.4
2017-10-09T10:15:52.279Z,11.5
2017-10-09T10:16:51.347Z,11.5
2017-10-09T10:17:50.664Z,11.5
2017-10-09T10:18:49.480Z,11.5
2017-10-09T10:19:49.177Z,11.5
2017-10-09T10:20:47.988Z,11.5
2017-10-09T10:21:47.291Z,11.6
2017-10-09T10:22:46.615Z,11.6
2017-10-09T10:23:45.435Z,11.6
2017-10-09T10:24:44.627Z,11.6
2017-10-09T10:25:43.822Z,11.7
2017-10-09T10:26:43.010Z,11.7
2017-10-09T10:27:42.081Z,11.7
2017-10-09T10:28:41.280Z,11.8
2017-10-09T10:29:40.476Z,11.8
2017-10-09T10:32:37.818Z,11.9
2017-10-09T10:33:37.261Z,11.9
2017-10-09T10:34:36.340Z,11.9
2017-10-09T10:35:35.288Z,11.9
2017-10-09T10:36:34.728Z,11.9
2017-10-09T10:37:34.050Z,11.8
2017-10-09T10:38:32.867Z,11.8
2017-10-09T10:39:32.312Z,11.8
2017-10-09T10:40:31.252Z,11.8
2017-10-09T10:41:30.693Z,11.9
2017-10-09T10:42:29.513Z,11.8
2017-10-09T10:43:28.579Z,11.8
2017-10-09T10:44:28.027Z,11.8
2017-10-09T10:45:27.225Z,11.9
2017-10-09T10:46:26.035Z,11.9
2017-10-09T10:47:25.257Z,11.9
2017-10-09T10:48:24.577Z,11.9
2017-10-09T10:49:23.653Z,12
2017-10-09T10:50:22.720Z,12
2017-10-09T10:51:22.165Z,12
2017-10-09T10:52:21.222Z,12
2017-10-09T10:53:20.284Z,12
2017-10-09T10:55:18.732Z,12.1
2017-10-09T10:56:17.801Z,12.1
2017-10-09T10:59:15.889Z,12.1
2017-10-09T11:00:14.450Z,12.1
2017-10-09T11:01:13.767Z,12.1
2017-10-09T11:03:12.089Z,12.2
2017-10-09T11:04:11.421Z,12.2
2017-10-09T11:06:09.500Z,12.3
2017-10-09T11:07:08.815Z,12.3
2017-10-09T11:08:08.127Z,12.3
2017-10-09T11:10:06.327Z,12.4
2017-10-09T11:11:05.655Z,12.4
2017-10-09T11:12:04.594Z,12.4
2017-10-09T11:13:03.787Z,12.4
2017-10-09T11:14:03.361Z,12.5
2017-10-09T11:15:02.299Z,12.4
2017-10-09T11:17:00.373Z,12.4
2017-10-09T11:17:59.952Z,12.4
2017-10-09T11:18:58.773Z,12.4
2017-10-09T11:19:58.225Z,12.3
2017-10-09T11:20:57.414Z,12.3
2017-10-09T11:21:56.604Z,12.3
2017-10-09T11:22:55.797Z,12.3
2017-10-09T11:23:54.755Z,12.3
2017-10-09T11:24:54.059Z,12.3
2017-10-09T11:25:53.250Z,12.3
2017-10-09T11:26:52.445Z,12.3
2017-10-09T11:27:51.640Z,12.3
2017-10-09T11:28:50.837Z,12.4
2017-10-09T11:29:50.284Z,12.4
2017-10-09T11:30:48.969Z,12.5
2017-10-09T11:31:48.162Z,12.5
2017-10-09T11:32:47.480Z,12.5
2017-10-09T11:33:46.680Z,12.5
2017-10-09T11:34:45.999Z,12.5
2017-10-09T11:35:45.320Z,12.5
2017-10-09T11:36:44.262Z,12.4
2017-10-09T11:37:43.329Z,12.5
2017-10-09T11:38:42.651Z,12.5
2017-10-09T11:39:41.849Z,12.5
2017-10-09T11:40:41.167Z,12.5
2017-10-09T11:41:40.107Z,12.6
2017-10-09T11:42:39.303Z,12.6
2017-10-09T11:43:38.748Z,12.6
2017-10-09T11:45:36.955Z,12.6
2017-10-09T11:46:36.277Z,12.7
2017-10-09T11:48:34.347Z,12.7
2017-10-09T11:49:33.799Z,12.7
2017-10-09T11:50:32.614Z,12.6
2017-10-09T11:51:31.937Z,12.6
2017-10-09T11:52:31.503Z,12.5
2017-10-09T11:53:30.441Z,12.5
2017-10-09T11:54:29.629Z,12.5
2017-10-09T11:55:28.831Z,12.5
2017-10-09T11:56:28.026Z,12.5
2017-10-09T11:57:27.097Z,12.5
2017-10-09T11:58:26.547Z,12.5
2017-10-09T11:59:25.487Z,12.5
2017-10-09T12:00:24.807Z,12.5
2017-10-09T12:01:23.747Z,12.5
2017-10-09T12:02:23.202Z,12.5
2017-10-09T12:03:22.017Z,12.5
2017-10-09T12:04:21.336Z,12.5
2017-10-09T12:05:20.646Z,12.5
2017-10-09T12:06:19.967Z,12.6
2017-10-09T12:07:19.038Z,12.6
2017-10-09T12:08:18.354Z,12.7
2017-10-09T12:09:17.314Z,12.7
2017-10-09T12:10:16.634Z,12.7
2017-10-09T12:11:15.827Z,12.8
2017-10-09T12:12:14.889Z,12.8
2017-10-09T12:13:14.078Z,12.8
2017-10-09T12:14:13.538Z,12.8
2017-10-09T12:15:12.354Z,12.7
2017-10-09T12:16:11.299Z,12.7
2017-10-09T12:17:10.868Z,12.7
2017-10-09T12:18:10.181Z,12.7
2017-10-09T12:19:09.370Z,12.6
2017-10-09T12:20:08.309Z,12.6
2017-10-09T12:21:07.628Z,12.6
2017-10-09T12:22:06.954Z,12.7
2017-10-09T12:23:06.147Z,12.6
2017-10-09T12:24:04.958Z,12.7
2017-10-09T12:25:04.148Z,12.6
2017-10-09T12:26:03.465Z,12.7
2017-10-09T12:27:02.656Z,12.6
2017-10-09T12:28:01.726Z,12.6
2017-10-09T12:29:01.049Z,12.6
2017-10-09T12:30:00.246Z,12.6
2017-10-09T12:30:59.691Z,12.6
2017-10-09T12:31:58.517Z,12.5
2017-10-09T12:32:57.961Z,12.6
2017-10-09T12:33:57.151Z,12.6
2017-10-09T12:34:56.096Z,12.6
2017-10-09T12:35:55.419Z,12.6
2017-10-09T12:36:54.490Z,12.6
2017-10-09T12:37:53.682Z,12.7
2017-10-09T12:38:52.745Z,12.6
2017-10-09T12:39:52.061Z,12.6
2017-10-09T12:40:51.258Z,12.6
2017-10-09T12:41:50.453Z,12.6
2017-10-09T12:42:49.643Z,12.6
2017-10-09T12:43:20.144Z,12.6
2017-10-09T12:43:50.790Z,12.6
2017-10-09T12:45:46.983Z,12.5
2017-10-09T12:46:46.299Z,12.5
2017-10-09T12:47:45.865Z,12.5
2017-10-09T12:48:44.940Z,12.5
2017-10-09T12:49:44.136Z,12.4
2017-10-09T12:50:43.213Z,12.4
2017-10-09T12:52:41.290Z,12.3
2017-10-09T12:53:40.988Z,12.2
2017-10-09T12:55:39.192Z,12.2
2017-10-09T12:56:38.644Z,12.2
2017-10-09T12:57:37.587Z,12.1
2017-10-09T12:58:36.782Z,12.1
2017-10-09T12:59:35.990Z,12.1
2017-10-09T13:00:35.306Z,12.1
2017-10-09T13:01:05.565Z,12.1
2017-10-09T13:01:36.187Z,12.1
2017-10-09T13:02:06.314Z,12.1
2017-10-09T13:02:36.693Z,12.1
2017-10-09T13:03:07.077Z,12.1
2017-10-09T13:04:31.807Z,12.1
2017-10-09T13:05:30.863Z,12.2
2017-10-09T13:06:30.066Z,12.2
2017-10-09T13:07:29.670Z,12.2
2017-10-09T13:08:28.856Z,12.2
2017-10-09T13:09:28.051Z,12.2
2017-10-09T13:10:27.363Z,12.1
2017-10-09T13:11:26.424Z,12.1
2017-10-09T13:12:25.115Z,12.2
2017-10-09T13:13:24.312Z,12.1
2017-10-09T13:14:23.376Z,12.2
2017-10-09T13:15:22.948Z,12.2
2017-10-09T13:16:22.264Z,12.2
2017-10-09T13:17:21.459Z,12.2
2017-10-09T13:18:20.774Z,12.2
2017-10-09T13:19:19.713Z,12.2
2017-10-09T13:20:19.154Z,12.2
2017-10-09T13:21:18.100Z,12.2
2017-10-09T13:22:17.054Z,12.2
2017-10-09T13:23:16.505Z,12.2
2017-10-09T13:25:14.860Z,12.3
2017-10-09T13:26:13.928Z,12.4
2017-10-09T13:27:13.243Z,12.4
2017-10-09T13:28:12.561Z,12.4
2017-10-09T13:29:11.252Z,12.4
2017-10-09T13:30:10.448Z,12.4
2017-10-09T13:32:08.782Z,12.5
2017-10-09T13:33:08.105Z,12.5
2017-10-09T13:34:07.299Z,12.5
2017-10-09T13:35:06.240Z,12.5
2017-10-09T13:36:05.551Z,12.5
2017-10-09T13:37:04.619Z,12.5
2017-10-09T13:38:04.062Z,12.5
2017-10-09T13:39:03.251Z,12.4
2017-10-09T13:40:02.316Z,12.4
2017-10-09T13:41:01.511Z,12.3
2017-10-09T13:42:00.701Z,12.3
2017-10-09T13:43:59.275Z,12.3
2017-10-09T13:44:29.908Z,12.3
2017-10-09T13:45:00.039Z,12.2
2017-10-09T13:45:30.550Z,12.2
2017-10-09T13:46:00.939Z,12.2
2017-10-09T13:46:56.738Z,12.2
2017-10-09T13:48:55.201Z,12.2
2017-10-09T13:49:54.517Z,12.1
2017-10-09T13:50:53.332Z,12.1
2017-10-09T13:51:52.397Z,12.1
2017-10-09T13:52:51.715Z,12.1
2017-10-09T13:54:50.300Z,12
2017-10-09T13:55:20.806Z,12
2017-10-09T13:56:48.563Z,12
2017-10-09T13:57:47.629Z,12
2017-10-09T13:58:47.075Z,11.9
2017-10-09T13:59:45.894Z,11.9
2017-10-09T14:00:45.339Z,11.9
2017-10-09T14:02:43.786Z,11.9
2017-10-09T14:03:43.103Z,11.9
2017-10-09T14:04:42.040Z,11.9
2017-10-09T14:05:41.614Z,11.9
2017-10-09T14:07:39.443Z,11.9
2017-10-09T14:08:38.765Z,11.9
2017-10-09T14:09:38.218Z,12
2017-10-09T14:10:37.417Z,12
2017-10-09T14:11:36.485Z,12
2017-10-09T14:12:35.431Z,12
2017-10-09T14:13:34.756Z,12
2017-10-09T14:14:33.694Z,12
2017-10-09T14:15:33.144Z,12
2017-10-09T14:20:29.129Z,12
2017-10-09T14:21:27.971Z,12
2017-10-09T14:22:27.289Z,12
2017-10-09T14:23:26.488Z,12
2017-10-09T14:26:23.954Z,12
2017-10-09T14:27:23.138Z,12.1
2017-10-09T14:30:20.477Z,12
2017-10-09T14:40:12.503Z,12
2017-10-09T14:41:11.868Z,12
2017-10-09T14:46:07.744Z,12.1
2017-10-09T14:48:06.098Z,12.1
2017-10-09T14:50:04.450Z,12.1
2017-10-09T14:51:04.004Z,12.1
2017-10-09T14:52:02.923Z,12.1
2017-10-09T14:53:02.268Z,12
2017-10-09T14:54:01.260Z,12
2017-10-09T14:55:00.609Z,12
2017-10-09T14:55:59.477Z,12
2017-10-09T14:56:58.677Z,12
2017-10-09T14:58:56.765Z,12
2017-10-09T14:59:56.244Z,12
2017-10-09T15:01:54.744Z,12.1
2017-10-09T15:06:50.490Z,12.3
2017-10-09T15:08:48.983Z,12.3
2017-10-09T15:15:43.001Z,12.3
2017-10-09T15:16:42.338Z,12.3
2017-10-09T15:18:40.471Z,12.2
2017-10-09T15:20:38.558Z,12.2
2017-10-09T15:21:09.076Z,12.2
2017-10-09T15:28:32.287Z,12.3
2017-10-09T15:30:30.630Z,12.2
2017-10-09T15:31:00.920Z,12.2
2017-10-09T15:31:31.577Z,12.2
2017-10-09T15:32:02.352Z,12.2
2017-10-09T15:32:32.871Z,12.2
2017-10-09T15:33:03.654Z,12.2
2017-10-09T15:36:25.920Z,12.1
2017-10-09T15:38:24.381Z,12.1
2017-10-09T15:39:23.215Z,12.1
2017-10-09T15:47:17.009Z,12
2017-10-09T15:54:11.401Z,11.9
2017-10-09T15:55:10.236Z,12
2017-10-09T15:56:09.072Z,11.9
2017-10-09T15:58:07.670Z,11.9
2017-10-09T16:01:05.144Z,11.9
2017-10-09T16:02:04.490Z,11.9
2017-10-09T16:03:03.586Z,11.8
2017-10-09T16:04:02.924Z,11.8
2017-10-09T16:06:01.280Z,11.8
2017-10-09T16:09:57.778Z,11.8
2017-10-09T16:10:57.266Z,11.8